Time;durP1;ratioP1;P1;durP2;ratioP2;P2;SDS_P1;SDS_P2;PMS_P1;PMS_P2;Temp;Humidity;BMP_temperature;BMP_pressure;BME280_temperature;BME280_humidity;BME280_pressure;Samples;Min_cycle;Max_cycle;Signal;HPM_P1;HPM_P2
2022/02/14 00:01:52;;;;;;;0.30;0.30;;;2.30;91.80;;;;;;5013993;28;20189;-72
2022/02/14 00:04:18;;;;;;;0.40;0.40;;;2.30;91.80;;;;;;5013951;28;20223;-72
2022/02/14 00:06:44;;;;;;;0.30;0.30;;;2.30;92.20;;;;;;5013820;28;20595;-72
2022/02/14 00:09:09;;;;;;;0.40;0.40;;;2.20;92.00;;;;;;5013981;28;20206;-72
2022/02/14 00:11:35;;;;;;;0.30;0.30;;;2.20;92.10;;;;;;5013941;28;20248;-72
2022/02/14 00:14:01;;;;;;;0.30;0.30;;;2.20;92.10;;;;;;5013880;28;20541;-72
2022/02/14 00:16:26;;;;;;;0.37;0.37;;;2.20;92.10;;;;;;5013747;28;20255;-72
2022/02/14 00:18:52;;;;;;;0.40;0.40;;;2.20;92.20;;;;;;5013972;28;20643;-72
2022/02/14 00:21:18;;;;;;;0.30;0.30;;;2.20;92.20;;;;;;5013112;28;20732;-72
2022/02/14 00:23:43;;;;;;;0.40;0.40;;;2.20;92.20;;;;;;5013856;28;20672;-71
2022/02/14 00:26:09;;;;;;;0.30;0.30;;;2.10;92.40;;;;;;5013553;28;20187;-72
2022/02/14 00:28:35;;;;;;;0.30;0.30;;;2.00;92.60;;;;;;5013891;28;20194;-72
2022/02/14 00:31:00;;;;;;;0.30;0.30;;;2.00;92.70;;;;;;5013749;28;20556;-72
2022/02/14 00:33:26;;;;;;;0.40;0.40;;;2.00;92.80;;;;;;5013601;28;20172;-72
2022/02/14 00:35:51;;;;;;;0.40;0.40;;;1.90;92.80;;;;;;5013490;28;20175;-72
2022/02/14 00:38:17;;;;;;;0.83;0.83;;;1.90;92.90;;;;;;5013662;28;20179;-72
2022/02/14 00:40:43;;;;;;;0.40;0.40;;;1.90;92.90;;;;;;5013567;28;20204;-72
2022/02/14 00:43:08;;;;;;;0.40;0.40;;;2.00;92.90;;;;;;5013735;28;20334;-72
2022/02/14 00:45:34;;;;;;;0.40;0.40;;;1.90;92.90;;;;;;5013344;28;20195;-72
2022/02/14 00:48:00;;;;;;;0.30;0.30;;;1.90;92.90;;;;;;5013669;28;20179;-72
2022/02/14 00:50:26;;;;;;;0.30;0.30;;;1.90;92.90;;;;;;5013528;28;20399;-72
2022/02/14 00:52:51;;;;;;;0.40;0.40;;;1.80;93.10;;;;;;5013650;28;20755;-72
2022/02/14 00:55:17;;;;;;;0.30;0.30;;;1.60;93.40;;;;;;5013378;28;20250;-71
2022/02/14 00:57:43;;;;;;;0.40;0.40;;;1.50;93.70;;;;;;5013601;28;20171;-72
2022/02/14 01:00:12;;;;;;;0.40;0.40;;;1.60;93.70;;;;;;5013695;28;20176;-72
2022/02/14 01:02:38;;;;;;;0.30;0.30;;;1.60;93.70;;;;;;5013449;28;20553;-72
2022/02/14 01:05:07;;;;;;;0.30;0.30;;;1.70;93.70;;;;;;5013244;28;20165;-72
2022/02/14 01:07:33;;;;;;;0.40;0.40;;;1.70;93.50;;;;;;5013354;28;20700;-72
2022/02/14 01:10:00;;;;;;;0.40;0.40;;;1.70;93.40;;;;;;5013427;28;20180;-72
2022/02/14 01:12:27;;;;;;;0.30;0.30;;;1.70;93.40;;;;;;5013427;28;20434;-72
2022/02/14 01:14:53;;;;;;;0.30;0.30;;;1.60;93.40;;;;;;5013474;28;20533;-72
2022/02/14 01:17:19;;;;;;;0.30;0.30;;;1.60;93.50;;;;;;5013583;28;20182;-72
2022/02/14 01:19:44;;;;;;;0.30;0.30;;;1.60;93.40;;;;;;5013267;28;20510;-72
2022/02/14 01:22:11;;;;;;;0.40;0.40;;;1.70;93.30;;;;;;5013282;28;20223;-72
2022/02/14 01:24:37;;;;;;;0.30;0.30;;;1.70;93.20;;;;;;5013476;28;20168;-72
2022/02/14 01:27:06;;;;;;;0.30;0.30;;;1.70;93.30;;;;;;5013169;28;20259;-72
2022/02/14 01:29:33;;;;;;;0.30;0.30;;;1.70;93.40;;;;;;5013359;28;20168;-72
2022/02/14 01:31:59;;;;;;;0.40;0.40;;;1.70;93.60;;;;;;5013461;28;20196;-72
2022/02/14 01:34:24;;;;;;;0.30;0.30;;;1.70;93.60;;;;;;5016775;28;20527;-72
2022/02/14 01:36:50;;;;;;;0.30;0.30;;;1.70;93.70;;;;;;5016575;28;20461;-72
2022/02/14 01:39:16;;;;;;;0.30;0.30;;;1.70;93.70;;;;;;5016758;28;20190;-72
2022/02/14 01:41:42;;;;;;;0.30;0.30;;;1.70;93.70;;;;;;5016846;28;20194;-72
2022/02/14 01:44:32;;;;;;;0.30;0.30;;;1.70;93.60;;;;;;5016472;28;20629;-72
2022/02/14 01:46:58;;;;;;;0.30;0.30;;;1.70;93.40;;;;;;5016670;28;20643;-72
2022/02/14 01:49:24;;;;;;;0.30;0.30;;;1.80;93.20;;;;;;5016684;28;20171;-72
2022/02/14 01:51:50;;;;;;;0.30;0.30;;;1.70;93.20;;;;;;5016526;28;20515;-72
2022/02/14 01:54:16;;;;;;;0.30;0.30;;;1.60;93.20;;;;;;5016264;28;20188;-72
2022/02/14 01:56:42;;;;;;;0.40;0.40;;;1.60;93.20;;;;;;5016072;28;20430;-72
2022/02/14 01:59:08;;;;;;;0.30;0.30;;;1.60;93.30;;;;;;5016502;28;20183;-72
2022/02/14 02:01:34;;;;;;;0.30;0.30;;;1.50;93.40;;;;;;5016338;28;20434;-72
2022/02/14 02:03:59;;;;;;;0.40;0.40;;;1.50;93.50;;;;;;5016206;28;20203;-72
2022/02/14 02:06:25;;;;;;;0.30;0.30;;;1.40;93.70;;;;;;5016185;28;20172;-72
2022/02/14 02:08:51;;;;;;;0.30;0.30;;;2.10;94.10;;;;;;5016245;28;20264;-72
2022/02/14 02:14:01;;;;;;;0.30;0.30;;;1.80;94.00;;;;;;5016377;28;20175;-72
2022/02/14 02:16:27;;;;;;;0.40;0.40;;;1.50;93.60;;;;;;5015839;28;20255;-72
2022/02/14 02:18:52;;;;;;;0.40;0.40;;;1.50;93.50;;;;;;5016115;28;20531;-72
2022/02/14 02:21:18;;;;;;;0.30;0.30;;;2.30;93.80;;;;;;5015962;28;20200;-72
2022/02/14 02:23:47;;;;;;;0.40;0.40;;;1.40;93.50;;;;;;5015744;28;20235;-72
2022/02/14 02:26:13;;;;;;;0.38;0.38;;;1.30;93.80;;;;;;5015623;28;20527;-72
2022/02/14 02:28:38;;;;;;;0.40;0.40;;;1.30;93.90;;;;;;5015790;28;20243;-72
2022/02/14 02:31:05;;;;;;;0.40;0.40;;;1.40;93.90;;;;;;5015918;28;20734;-72
2022/02/14 02:33:32;;;;;;;0.40;0.40;;;1.40;93.70;;;;;;5015656;28;20518;-72
2022/02/14 02:35:58;;;;;;;0.40;0.40;;;1.50;93.70;;;;;;5014176;28;20183;-72
2022/02/14 02:38:25;;;;;;;0.30;0.30;;;1.40;93.70;;;;;;5015697;28;20167;-72
2022/02/14 02:40:50;;;;;;;0.30;0.30;;;1.40;93.70;;;;;;5015652;28;20203;-72
2022/02/14 02:43:17;;;;;;;0.63;0.63;;;1.50;93.70;;;;;;5015675;28;20195;-72
2022/02/14 02:45:46;;;;;;;0.40;0.40;;;1.40;93.60;;;;;;5014662;28;20645;-72
2022/02/14 02:48:12;;;;;;;0.30;0.30;;;1.30;93.70;;;;;;5015551;28;20199;-72
2022/02/14 02:51:01;;;;;;;0.30;0.30;;;1.30;93.90;;;;;;5015425;28;20167;-72
2022/02/14 02:53:23;;;;;;;0.40;0.40;;;1.20;93.80;;;;;;5015012;28;20203;-72
2022/02/14 02:55:49;;;;;;;0.40;0.40;;;1.10;94.00;;;;;;5015092;28;20174;-72
2022/02/14 02:58:14;;;;;;;0.40;0.40;;;1.10;94.20;;;;;;5015278;28;20629;-72
2022/02/14 03:00:40;;;;;;;0.30;0.30;;;1.20;94.20;;;;;;5015195;28;20255;-72
2022/02/14 03:03:07;;;;;;;0.30;0.30;;;1.10;94.00;;;;;;5015002;28;20266;-72
2022/02/14 03:05:33;;;;;;;0.30;0.30;;;1.10;94.10;;;;;;5014966;28;20203;-72
2022/02/14 03:07:58;;;;;;;0.30;0.30;;;1.30;94.00;;;;;;5015229;28;20195;-72
2022/02/14 03:10:24;;;;;;;0.30;0.30;;;1.10;93.80;;;;;;5014964;28;20171;-72
2022/02/14 03:12:50;;;;;;;0.40;0.40;;;0.70;94.20;;;;;;5014838;28;20541;-72
2022/02/14 03:15:15;;;;;;;0.40;0.40;;;0.80;94.70;;;;;;5014903;28;20183;-72
2022/02/14 03:17:41;;;;;;;0.33;0.33;;;0.90;94.70;;;;;;5015058;28;20190;-72
2022/02/14 03:20:07;;;;;;;0.40;0.40;;;1.00;94.60;;;;;;5014716;28;20171;-72
2022/02/14 03:22:33;;;;;;;0.30;0.30;;;1.10;94.60;;;;;;5014568;28;20230;-72
2022/02/14 03:24:58;;;;;;;0.40;0.40;;;1.10;94.50;;;;;;5014905;28;20172;-72
2022/02/14 03:27:24;;;;;;;0.30;0.30;;;1.10;94.40;;;;;;5014606;28;20246;-71
2022/02/14 03:29:49;;;;;;;0.30;0.30;;;1.10;94.40;;;;;;5014818;28;20178;-72
2022/02/14 03:32:15;;;;;;;0.40;0.40;;;1.10;94.20;;;;;;5014705;28;20229;-72
2022/02/14 03:34:41;;;;;;;0.30;0.30;;;1.20;94.10;;;;;;5014463;28;20199;-72
2022/02/14 03:37:06;;;;;;;0.30;0.30;;;1.30;94.00;;;;;;5014298;28;20225;-72
2022/02/14 03:39:32;;;;;;;0.40;0.40;;;1.70;94.10;;;;;;5014854;28;20247;-72
2022/02/14 03:41:58;;;;;;;0.40;0.40;;;1.30;93.70;;;;;;5013032;28;20215;-72
2022/02/14 03:44:23;;;;;;;0.30;0.30;;;1.40;93.70;;;;;;5014551;28;20214;-72
2022/02/14 03:46:49;;;;;;;0.30;0.30;;;1.50;93.60;;;;;;5014342;28;20175;-71
2022/02/14 03:49:15;;;;;;;0.40;0.40;;;1.50;93.60;;;;;;5014477;28;20652;-72
2022/02/14 03:51:43;;;;;;;0.30;0.30;;;1.60;93.50;;;;;;5014436;28;20587;-72
2022/02/14 03:54:09;;;;;;;0.40;0.40;;;1.80;93.80;;;;;;5014153;28;20195;-72
2022/02/14 03:56:34;;;;;;;0.40;0.40;;;1.90;93.30;;;;;;5013175;28;20545;-72
2022/02/14 03:59:00;;;;;;;0.37;0.37;;;2.10;93.10;;;;;;5014263;28;20411;-72
2022/02/14 04:01:26;;;;;;;0.30;0.30;;;2.10;92.70;;;;;;5014063;28;20672;-72
2022/02/14 04:03:52;;;;;;;0.40;0.40;;;2.20;92.60;;;;;;5012589;28;20207;-72
2022/02/14 04:06:18;;;;;;;0.40;0.40;;;2.40;92.60;;;;;;5013893;28;20171;-72
2022/02/14 04:08:43;;;;;;;0.40;0.40;;;2.60;92.30;;;;;;5013992;28;20232;-72
2022/02/14 04:11:09;;;;;;;0.40;0.40;;;2.70;92.00;;;;;;5014030;28;20215;-72
2022/02/14 04:13:35;;;;;;;0.30;0.30;;;2.70;91.80;;;;;;5014017;28;20182;-72
2022/02/14 04:16:00;;;;;;;0.33;0.33;;;2.60;92.20;;;;;;5013758;28;20419;-72
2022/02/14 04:18:27;;;;;;;0.40;0.40;;;2.60;92.10;;;;;;5014043;28;20260;-72
2022/02/14 04:20:53;;;;;;;0.30;0.30;;;2.80;92.10;;;;;;5013719;28;20658;-72
2022/02/14 04:23:18;;;;;;;0.40;0.40;;;2.80;92.10;;;;;;5013728;28;20242;-72
2022/02/14 04:25:44;;;;;;;0.30;0.30;;;2.90;92.10;;;;;;5013593;28;20773;-72
2022/02/14 04:28:09;;;;;;;0.40;0.40;;;3.00;91.70;;;;;;5013838;28;20170;-72
2022/02/14 04:30:35;;;;;;;0.30;0.30;;;3.10;91.70;;;;;;5013826;28;20173;-72
2022/02/14 04:33:01;;;;;;;0.30;0.30;;;3.10;91.50;;;;;;5013643;28;20536;-72
2022/02/14 04:35:31;;;;;;;0.30;0.30;;;3.20;91.60;;;;;;5013500;28;20437;-72
2022/02/14 04:38:01;;;;;;;0.30;0.30;;;3.20;91.70;;;;;;5013747;28;20654;-72
2022/02/14 04:40:33;;;;;;;0.40;0.40;;;3.00;91.50;;;;;;5013739;28;20232;-72
2022/02/14 04:43:00;;;;;;;0.32;0.32;;;2.70;91.80;;;;;;5013638;28;20199;-72
2022/02/14 04:45:25;;;;;;;0.30;0.30;;;2.80;92.40;;;;;;5013540;28;20192;-72
2022/02/14 04:47:51;;;;;;;0.30;0.30;;;3.00;92.80;;;;;;5012483;28;20656;-72
2022/02/14 04:50:17;;;;;;;0.30;0.30;;;3.20;92.00;;;;;;5013854;28;20539;-72
2022/02/14 04:52:43;;;;;;;0.30;0.30;;;3.30;91.50;;;;;;5013490;28;20980;-72
2022/02/14 04:55:09;;;;;;;0.40;0.40;;;3.50;91.20;;;;;;5013426;28;20183;-72
2022/02/14 04:57:35;;;;;;;0.30;0.30;;;3.60;91.20;;;;;;5013681;28;20205;-72
2022/02/14 05:00:03;;;;;;;0.30;0.30;;;3.60;91.30;;;;;;5013606;28;20178;-72
2022/02/14 05:02:28;;;;;;;0.30;0.30;;;3.60;91.10;;;;;;5014090;28;20259;-72
2022/02/14 05:04:54;;;;;;;0.40;0.40;;;3.60;91.10;;;;;;5013621;28;20177;-72
2022/02/14 05:07:19;;;;;;;0.30;0.30;;;3.60;91.20;;;;;;5014150;28;20177;-72
2022/02/14 05:09:45;;;;;;;0.30;0.30;;;3.60;91.00;;;;;;5017342;28;20193;-72
2022/02/14 05:12:11;;;;;;;0.40;0.40;;;3.70;90.90;;;;;;5017526;28;20677;-72
2022/02/14 05:14:37;;;;;;;0.40;0.40;;;3.50;90.70;;;;;;5017144;28;20170;-72
2022/02/14 05:17:03;;;;;;;0.30;0.30;;;3.40;90.80;;;;;;5016891;28;20307;-72
2022/02/14 05:19:28;;;;;;;0.30;0.30;;;3.40;91.30;;;;;;5017281;28;20179;-72
2022/02/14 05:21:54;;;;;;;0.40;0.40;;;3.30;91.20;;;;;;5017053;28;20427;-72
2022/02/14 05:24:19;;;;;;;0.40;0.40;;;3.40;91.20;;;;;;5017018;28;20200;-72
2022/02/14 05:26:45;;;;;;;0.40;0.40;;;3.40;91.20;;;;;;5016891;28;20253;-72
2022/02/14 05:29:11;;;;;;;0.40;0.40;;;3.50;91.40;;;;;;5017084;28;20217;-72
2022/02/14 05:31:37;;;;;;;0.40;0.40;;;3.60;91.70;;;;;;5016779;28;20609;-72
2022/02/14 05:34:02;;;;;;;0.30;0.30;;;3.60;91.80;;;;;;5016823;28;20198;-72
2022/02/14 05:36:28;;;;;;;0.30;0.30;;;3.50;91.80;;;;;;5016921;28;20643;-72
2022/02/14 05:38:54;;;;;;;0.33;0.33;;;3.60;91.80;;;;;;5015566;28;20182;-72
2022/02/14 05:41:21;;;;;;;0.30;0.30;;;3.60;91.50;;;;;;5016707;28;20281;-72
2022/02/14 05:43:47;;;;;;;0.30;0.30;;;3.70;91.40;;;;;;5015272;28;20205;-72
2022/02/14 05:46:13;;;;;;;0.30;0.30;;;3.70;91.50;;;;;;5016501;28;20188;-72
2022/02/14 05:48:48;;;;;;;0.40;0.40;;;3.90;91.30;;;;;;5016561;28;20239;-72
2022/02/14 05:51:15;;;;;;;0.30;0.30;;;4.00;91.00;;;;;;5016462;28;20416;-72
2022/02/14 05:53:41;;;;;;;0.30;0.30;;;4.00;91.10;;;;;;5016360;28;20194;-72
2022/02/14 05:56:07;;;;;;;0.30;0.30;;;3.90;91.00;;;;;;5016234;28;20177;-72
2022/02/14 05:58:34;;;;;;;0.37;0.37;;;4.00;91.00;;;;;;5016456;28;20197;-72
2022/02/14 06:01:00;;;;;;;0.40;0.40;;;3.90;91.20;;;;;;5016413;28;20429;-72
2022/02/14 06:03:26;;;;;;;0.30;0.30;;;3.80;91.30;;;;;;5016154;28;20228;-72
2022/02/14 06:05:52;;;;;;;0.40;0.40;;;3.70;91.50;;;;;;5016048;28;20262;-72
2022/02/14 06:08:18;;;;;;;0.33;0.33;;;3.90;91.30;;;;;;5016378;28;20407;-72
2022/02/14 06:10:43;;;;;;;0.32;0.32;;;4.10;93.40;;;;;;5016223;28;20167;-72
2022/02/14 06:13:09;;;;;;;0.30;0.30;;;4.00;91.30;;;;;;5016018;28;20174;-72
2022/02/14 06:15:35;;;;;;;0.40;0.40;;;4.00;91.00;;;;;;5016114;28;20246;-72
2022/02/14 06:18:00;;;;;;;0.30;0.30;;;4.00;90.80;;;;;;5016207;28;20598;-72
2022/02/14 06:20:26;;;;;;;0.30;0.30;;;4.10;90.60;;;;;;5014954;28;20205;-72
2022/02/14 06:22:52;;;;;;;0.40;0.40;;;4.20;90.40;;;;;;5015746;28;20285;-72
2022/02/14 06:25:17;;;;;;;0.40;0.40;;;4.20;90.20;;;;;;5015833;28;20179;-72
2022/02/14 06:27:43;;;;;;;0.30;0.30;;;4.20;90.10;;;;;;5015949;28;20177;-72
2022/02/14 06:30:09;;;;;;;0.30;0.30;;;4.20;90.20;;;;;;5015791;28;20654;-72
2022/02/14 06:32:34;;;;;;;0.30;0.30;;;4.30;90.00;;;;;;5015695;28;20195;-72
2022/02/14 06:35:02;;;;;;;1.37;1.37;;;4.40;90.00;;;;;;5015725;28;20222;-72
2022/02/14 06:37:28;;;;;;;0.30;0.30;;;4.40;90.10;;;;;;5015846;28;20168;-72
2022/02/14 06:39:54;;;;;;;0.30;0.30;;;4.50;89.80;;;;;;5015726;28;20184;-72
2022/02/14 06:42:20;;;;;;;0.30;0.30;;;4.50;89.70;;;;;;5015556;28;20248;-72
2022/02/14 06:44:45;;;;;;;0.40;0.40;;;4.50;90.30;;;;;;5015507;28;20645;-72
2022/02/14 06:47:11;;;;;;;0.40;0.40;;;4.50;90.00;;;;;;5015351;28;20170;-72
2022/02/14 06:49:37;;;;;;;0.30;0.30;;;4.50;89.30;;;;;;5015471;28;20179;-72
2022/02/14 06:52:04;;;;;;;0.30;0.30;;;4.60;89.70;;;;;;5015117;28;20190;-72
2022/02/14 06:54:29;;;;;;;0.35;0.35;;;4.70;89.60;;;;;;5015368;28;20163;-72
2022/02/14 06:56:55;;;;;;;0.40;0.40;;;4.80;89.80;;;;;;5015028;28;20163;-72
2022/02/14 06:59:20;;;;;;;0.30;0.30;;;4.80;89.60;;;;;;5015215;28;20199;-72
2022/02/14 07:01:46;;;;;;;0.30;0.30;;;4.90;90.10;;;;;;5015068;28;20275;-72
2022/02/14 07:04:12;;;;;;;0.30;0.30;;;5.00;89.80;;;;;;5015145;28;20199;-72
2022/02/14 07:06:38;;;;;;;0.37;0.37;;;5.00;90.20;;;;;;5014930;28;20254;-72
2022/02/14 07:09:03;;;;;;;0.30;0.30;;;5.00;90.30;;;;;;5015211;28;20255;-72
2022/02/14 07:11:29;;;;;;;0.40;0.40;;;4.90;90.30;;;;;;5015329;28;20184;-72
2022/02/14 07:13:55;;;;;;;0.40;0.40;;;5.00;90.50;;;;;;5014915;28;20411;-72
2022/02/14 07:16:21;;;;;;;0.40;0.40;;;5.00;90.50;;;;;;5014796;28;20532;-72
2022/02/14 07:18:47;;;;;;;0.40;0.40;;;5.00;90.70;;;;;;5014976;28;20229;-72
2022/02/14 07:21:14;;;;;;;0.40;0.40;;;5.00;90.60;;;;;;5014922;28;20248;-72
2022/02/14 07:23:40;;;;;;;0.30;0.30;;;5.00;90.90;;;;;;5014672;28;20281;-72
2022/02/14 07:26:05;;;;;;;0.40;0.40;;;5.10;91.20;;;;;;5014612;28;20651;-72
2022/02/14 07:28:31;;;;;;;0.40;0.40;;;5.00;91.10;;;;;;5014687;28;20238;-72
2022/02/14 07:30:57;;;;;;;0.30;0.30;;;5.10;90.90;;;;;;5014783;28;20209;-72
2022/02/14 07:33:22;;;;;;;0.93;0.93;;;5.20;91.00;;;;;;5014574;28;20174;-72
2022/02/14 07:35:48;;;;;;;0.30;0.30;;;5.20;91.00;;;;;;5014434;28;20655;-72
2022/02/14 07:38:13;;;;;;;0.40;0.40;;;5.20;91.10;;;;;;5014470;28;20297;-72
2022/02/14 07:40:39;;;;;;;0.33;0.33;;;5.30;91.20;;;;;;5014530;28;20172;-72
2022/02/14 07:43:05;;;;;;;0.70;0.70;;;5.30;91.10;;;;;;5014336;28;20191;-72
2022/02/14 07:45:31;;;;;;;0.40;0.40;;;5.30;91.20;;;;;;5014391;28;20413;-72
2022/02/14 07:47:57;;;;;;;0.40;0.40;;;5.30;91.40;;;;;;5014411;28;20168;-72
2022/02/14 07:50:27;;;;;;;0.30;0.30;;;5.30;92.20;;;;;;5014474;28;20176;-72
2022/02/14 07:52:53;;;;;;;0.30;0.30;;;5.30;92.50;;;;;;5013989;28;20697;-72
2022/02/14 07:55:19;;;;;;;0.40;0.40;;;5.30;92.60;;;;;;5014260;28;20242;-72
2022/02/14 07:57:44;;;;;;;0.40;0.40;;;5.30;93.20;;;;;;5014404;28;20206;-72
2022/02/14 08:00:12;;;;;;;0.40;0.40;;;5.40;93.70;;;;;;5014185;28;20768;-72
2022/02/14 08:02:38;;;;;;;0.40;0.40;;;5.30;93.70;;;;;;5013998;28;20573;-72
2022/02/14 08:05:04;;;;;;;0.32;0.32;;;5.40;93.70;;;;;;5014048;28;20175;-72
2022/02/14 08:07:30;;;;;;;0.40;0.40;;;5.40;93.60;;;;;;5014085;28;20605;-72
2022/02/14 08:09:56;;;;;;;0.40;0.40;;;5.50;93.70;;;;;;5013951;28;20172;-72
2022/02/14 08:12:22;;;;;;;0.40;0.40;;;5.50;93.70;;;;;;5014095;28;20738;-72
2022/02/14 08:14:48;;;;;;;0.40;0.40;;;5.40;93.60;;;;;;5014006;28;20160;-72
2022/02/14 08:17:14;;;;;;;0.40;0.40;;;5.50;94.00;;;;;;5013808;28;20215;-72
2022/02/14 08:19:40;;;;;;;0.40;0.40;;;5.50;94.50;;;;;;5014006;28;20178;-72
2022/02/14 08:22:06;;;;;;;0.30;0.30;;;5.50;94.60;;;;;;5013861;28;20179;-72
2022/02/14 08:24:32;;;;;;;0.30;0.30;;;5.50;94.70;;;;;;5013708;28;20572;-72
2022/02/14 08:26:57;;;;;;;0.32;0.32;;;5.50;94.70;;;;;;5013646;28;20164;-72
2022/02/14 08:29:23;;;;;;;0.30;0.30;;;5.60;94.90;;;;;;5013817;28;20171;-72
2022/02/14 08:31:49;;;;;;;0.30;0.30;;;5.60;94.90;;;;;;5012508;28;20715;-72
2022/02/14 08:34:15;;;;;;;0.40;0.40;;;5.70;94.90;;;;;;5013834;28;20179;-72
2022/02/14 08:36:43;;;;;;;0.40;0.40;;;5.70;95.00;;;;;;5013444;28;20246;-72
2022/02/14 08:39:09;;;;;;;0.30;0.30;;;5.70;94.60;;;;;;5013642;28;20544;-72
2022/02/14 08:41:35;;;;;;;0.40;0.40;;;5.70;94.70;;;;;;5013575;28;20191;-72
2022/02/14 08:44:00;;;;;;;0.40;0.40;;;5.70;94.90;;;;;;5017397;28;20668;-72
2022/02/14 08:46:27;;;;;;;0.40;0.40;;;5.70;95.00;;;;;;5017642;28;20164;-72
2022/02/14 08:48:54;;;;;;;0.40;0.40;;;5.80;95.20;;;;;;5017772;28;20164;-73
2022/02/14 08:51:21;;;;;;;0.30;0.30;;;5.80;95.00;;;;;;5017602;28;20202;-72
2022/02/14 08:53:48;;;;;;;0.40;0.40;;;5.90;94.90;;;;;;5017391;28;20241;-73
2022/02/14 08:56:14;;;;;;;0.40;0.40;;;5.90;95.10;;;;;;5017472;28;20270;-72
2022/02/14 08:58:39;;;;;;;0.40;0.40;;;5.90;95.20;;;;;;5017513;28;20258;-72
2022/02/14 09:01:06;;;;;;;0.40;0.40;;;6.00;95.30;;;;;;5017706;28;20233;-72
2022/02/14 09:03:32;;;;;;;0.38;0.38;;;5.90;94.90;;;;;;5017225;28;20457;-72
2022/02/14 09:05:59;;;;;;;0.40;0.40;;;5.90;95.00;;;;;;5017158;28;20190;-72
2022/02/14 09:08:25;;;;;;;0.38;0.38;;;6.00;95.00;;;;;;5017242;28;20179;-73
2022/02/14 09:10:52;;;;;;;0.40;0.40;;;5.90;95.10;;;;;;5017370;28;20170;-72
2022/02/14 09:13:18;;;;;;;0.40;0.40;;;6.00;95.30;;;;;;5017227;28;20744;-72
2022/02/14 09:15:44;;;;;;;0.30;0.30;;;6.00;95.50;;;;;;5017138;28;20176;-72
2022/02/14 09:18:10;;;;;;;0.50;0.50;;;6.00;95.40;;;;;;5017242;28;20167;-72
2022/02/14 09:20:36;;;;;;;0.30;0.30;;;6.00;95.30;;;;;;5017031;28;20916;-73
2022/02/14 09:23:02;;;;;;;0.40;0.40;;;6.00;95.30;;;;;;5016956;28;21018;-72
2022/02/14 09:25:28;;;;;;;0.30;0.30;;;6.10;95.40;;;;;;5016978;28;20207;-72
2022/02/14 09:27:54;;;;;;;0.40;0.40;;;6.10;95.50;;;;;;5017000;28;20486;-72
2022/02/14 09:30:20;;;;;;;0.40;0.40;;;6.10;95.30;;;;;;5017143;28;20226;-72
2022/02/14 09:32:46;;;;;;;0.40;0.40;;;6.10;95.30;;;;;;5016735;28;20673;-72
2022/02/14 09:35:25;;;;;;;0.40;0.40;;;6.10;95.40;;;;;;5016783;28;20179;-72
2022/02/14 09:37:59;;;;;;;0.40;0.40;;;6.10;95.30;;;;;;5016971;28;20242;-72
2022/02/14 09:40:26;;;;;;;0.40;0.40;;;6.10;95.50;;;;;;5016970;28;20168;-72
2022/02/14 09:42:56;;;;;;;0.40;0.40;;;6.10;95.80;;;;;;5016573;28;20203;-72
2022/02/14 09:45:23;;;;;;;0.40;0.40;;;6.10;95.90;;;;;;5016649;28;20179;-72
2022/02/14 09:48:09;;;;;;;0.40;0.40;;;6.20;95.90;;;;;;5016506;28;20211;-72
2022/02/14 09:50:36;;;;;;;0.38;0.38;;;6.20;95.80;;;;;;5016703;28;20254;-72
2022/02/14 09:53:04;;;;;;;0.30;0.30;;;6.20;95.90;;;;;;5016313;28;20256;-72
2022/02/14 09:55:31;;;;;;;0.40;0.40;;;6.20;95.90;;;;;;5016444;28;20168;-72
2022/02/14 09:57:57;;;;;;;0.35;0.35;;;6.30;95.80;;;;;;5016490;28;20186;-72
2022/02/14 10:00:23;;;;;;;0.30;0.30;;;6.20;95.90;;;;;;5016269;28;20179;-72
2022/02/14 10:03:10;;;;;;;0.40;0.40;;;6.30;96.10;;;;;;5016113;28;20661;-72
2022/02/14 10:05:41;;;;;;;0.30;0.30;;;6.40;96.20;;;;;;5014856;28;20418;-72
2022/02/14 10:08:07;;;;;;;0.32;0.32;;;6.40;95.80;;;;;;5016321;28;20168;-72
2022/02/14 10:10:32;;;;;;;1.83;1.73;;;6.40;95.70;;;;;;5016171;28;20167;-72
2022/02/14 10:13:01;;;;;;;2.43;2.30;;;6.50;95.90;;;;;;5016117;28;20532;-72
2022/02/14 10:15:27;;;;;;;0.40;0.40;;;6.50;95.70;;;;;;5015892;28;20224;-72
2022/02/14 10:17:59;;;;;;;0.40;0.40;;;6.50;95.60;;;;;;5016205;28;20180;-72
2022/02/14 10:20:26;;;;;;;0.30;0.30;;;6.50;95.70;;;;;;5016203;28;20204;-72
2022/02/14 10:22:59;;;;;;;0.40;0.40;;;6.50;95.70;;;;;;5015730;28;20215;-72
2022/02/14 10:25:25;;;;;;;0.40;0.40;;;6.60;95.90;;;;;;5015911;28;20168;-72
2022/02/14 10:27:51;;;;;;;0.30;0.30;;;6.70;95.70;;;;;;5015847;28;20172;-73
2022/02/14 10:30:17;;;;;;;0.40;0.40;;;6.80;95.70;;;;;;5015983;28;20667;-73
2022/02/14 10:32:53;;;;;;;0.30;0.30;;;6.80;95.80;;;;;;5014431;28;20550;-73
2022/02/14 10:35:19;;;;;;;0.40;0.40;;;6.90;95.70;;;;;;5015809;28;20823;-72
2022/02/14 10:37:46;;;;;;;0.52;0.52;;;6.90;95.50;;;;;;5015513;28;20255;-73
2022/02/14 10:40:36;;;;;;;0.40;0.40;;;6.90;95.40;;;;;;5015810;28;20278;-73
2022/02/14 10:43:01;;;;;;;0.40;0.40;;;7.00;95.20;;;;;;5014234;28;20210;-72
2022/02/14 10:45:27;;;;;;;0.40;0.40;;;7.10;95.30;;;;;;5015402;28;20164;-72
2022/02/14 10:47:53;;;;;;;0.40;0.40;;;7.00;95.40;;;;;;5015656;28;20168;-73
2022/02/14 10:50:26;;;;;;;0.40;0.40;;;7.00;95.60;;;;;;5015562;28;20398;-72
2022/02/14 10:52:57;;;;;;;0.40;0.40;;;6.90;95.60;;;;;;5015196;28;20207;-73
2022/02/14 10:55:26;;;;;;;0.40;0.40;;;6.90;95.70;;;;;;5015193;28;20180;-73
2022/02/14 10:57:53;;;;;;;1.67;1.58;;;7.00;95.70;;;;;;5015388;28;20191;-72
2022/02/14 11:00:27;;;;;;;0.40;0.40;;;6.90;95.70;;;;;;5015370;28;20172;-73
2022/02/14 11:02:58;;;;;;;0.30;0.30;;;6.90;95.70;;;;;;5014997;28;20680;-73
2022/02/14 11:05:25;;;;;;;0.35;0.35;;;6.80;95.80;;;;;;5014427;28;20168;-73
2022/02/14 11:07:52;;;;;;;0.40;0.40;;;6.80;96.20;;;;;;5015117;28;20165;-73
2022/02/14 11:10:20;;;;;;;0.38;0.38;;;6.80;96.30;;;;;;5015217;28;20180;-73
2022/02/14 11:12:56;;;;;;;0.40;0.40;;;6.80;96.30;;;;;;5014958;28;20195;-73
2022/02/14 11:15:29;;;;;;;0.40;0.40;;;6.80;96.20;;;;;;5013443;28;20167;-73
2022/02/14 11:18:00;;;;;;;0.40;0.40;;;6.70;96.60;;;;;;5014910;28;20206;-72
2022/02/14 11:20:26;;;;;;;0.40;0.40;;;6.60;96.70;;;;;;5014939;28;20250;-72
2022/02/14 11:22:54;;;;;;;0.40;0.40;;;6.60;97.00;;;;;;5014678;28;20673;-72
2022/02/14 11:25:53;;;;;;;0.40;0.40;;;6.50;97.10;;;;;;5014705;28;20263;-73
2022/02/14 11:29:00;;;;;;;0.30;0.30;;;6.60;97.30;;;;;;5014814;28;20168;-73
2022/02/14 11:31:30;;;;;;;0.30;0.30;;;6.70;97.50;;;;;;4992977;28;20203;-72
2022/02/14 11:34:02;;;;;;;0.40;0.40;;;6.80;97.50;;;;;;4992915;28;20654;-72
2022/02/14 11:36:32;;;;;;;0.40;0.40;;;7.00;97.30;;;;;;5011179;28;20595;-72
2022/02/14 11:39:04;;;;;;;0.40;0.40;;;7.00;97.10;;;;;;5014543;28;20172;-72
2022/02/14 11:41:45;;;;;;;0.40;0.40;;;7.00;97.10;;;;;;5014493;28;20314;-73
2022/02/14 11:44:11;;;;;;;0.40;0.40;;;7.00;97.40;;;;;;5014239;28;20568;-73
2022/02/14 11:46:40;;;;;;;0.40;0.40;;;7.00;97.40;;;;;;5014164;28;20167;-73
2022/02/14 11:49:06;;;;;;;0.40;0.40;;;7.10;97.40;;;;;;5013001;28;20164;-72
2022/02/14 11:51:42;;;;;;;0.40;0.40;;;7.30;97.50;;;;;;5014272;28;20202;-72
2022/02/14 11:54:29;;;;;;;0.40;0.40;;;7.50;97.40;;;;;;5014216;28;20265;-72
2022/02/14 11:57:14;;;;;;;0.40;0.40;;;7.60;96.90;;;;;;5013997;28;20175;-72
2022/02/14 11:59:41;;;;;;;0.40;0.40;;;7.60;96.80;;;;;;5012819;28;20634;-72
2022/02/14 12:02:07;;;;;;;0.35;0.35;;;7.60;96.80;;;;;;5014055;28;20195;-73
2022/02/14 12:04:36;;;;;;;0.30;0.30;;;7.50;97.00;;;;;;5014251;28;20555;-73
2022/02/14 12:07:20;;;;;;;0.40;0.40;;;7.60;97.10;;;;;;5014164;28;20255;-73
2022/02/14 12:09:58;;;;;;;0.40;0.40;;;7.60;97.10;;;;;;5014242;28;20170;-73
2022/02/14 12:12:45;;;;;;;0.40;0.40;;;7.60;97.00;;;;;;5013967;28;20181;-72
2022/02/14 12:21:01;;;;;;;0.38;0.38;;;7.40;97.50;;;;;;5014002;28;20234;-73
2022/02/14 12:23:41;;;;;;;0.40;0.40;;;7.50;97.70;;;;;;5013752;28;20199;-72
2022/02/14 12:26:11;;;;;;;0.40;0.40;;;7.40;97.80;;;;;;5013746;28;20230;-73
2022/02/14 12:28:40;;;;;;;0.40;0.40;;;7.50;97.80;;;;;;5014233;28;20174;-73
2022/02/14 12:31:06;;;;;;;0.55;0.55;;;7.60;98.00;;;;;;5013669;28;20183;-73
2022/02/14 12:33:33;;;;;;;0.40;0.40;;;7.70;98.10;;;;;;5013820;28;20586;-72
2022/02/14 12:36:02;;;;;;;0.40;0.40;;;7.20;98.70;;;;;;5013680;28;20180;-73
2022/02/14 12:38:31;;;;;;;0.40;0.40;;;7.30;99.40;;;;;;5013813;28;20168;-72
2022/02/14 12:41:01;;;;;;;0.30;0.30;;;7.60;98.70;;;;;;5013606;28;20204;-73
2022/02/14 12:43:28;;;;;;;0.40;0.40;;;7.80;98.50;;;;;;5013564;28;20206;-73
2022/02/14 12:46:14;;;;;;;0.30;0.30;;;8.00;98.30;;;;;;5013472;28;20188;-73
2022/02/14 12:48:43;;;;;;;0.30;0.30;;;8.00;98.10;;;;;;5013843;28;20180;-73
2022/02/14 12:51:24;;;;;;;0.40;0.40;;;8.00;97.90;;;;;;5013663;28;20202;-73
2022/02/14 12:54:01;;;;;;;0.30;0.30;;;8.00;98.10;;;;;;5012206;28;20537;-73
2022/02/14 12:56:29;;;;;;;0.30;0.30;;;7.80;98.00;;;;;;5013350;28;20176;-73
2022/02/14 12:58:57;;;;;;;0.30;0.30;;;7.80;98.40;;;;;;5013790;28;20225;-73
2022/02/14 13:01:26;;;;;;;0.30;0.30;;;7.80;98.20;;;;;;5013584;28;20200;-73
2022/02/14 13:03:57;;;;;;;0.30;0.30;;;8.00;98.20;;;;;;5013806;28;20567;-73
2022/02/14 13:06:50;;;;;;;0.30;0.30;;;7.90;98.30;;;;;;5013438;28;20181;-73
2022/02/14 13:09:29;;;;;;;0.45;0.45;;;7.90;98.40;;;;;;5012103;28;20176;-73